sensor_id;sensor_type;location;lat;lon;timestamp;P1;durP1;ratioP1;P2;durP2;ratioP2
77117;SDS011;66072;50.238;19.228;2023-07-09T00:01:45;11.40;;;10.20;;
77117;SDS011;66072;50.238;19.228;2023-07-09T00:04:13;13.40;;;10.20;;
77117;SDS011;66072;50.238;19.228;2023-07-09T00:06:41;12.40;;;10.10;;
77117;SDS011;66072;50.238;19.228;2023-07-09T00:09:12;12.10;;;9.80;;
77117;SDS011;66072;50.238;19.228;2023-07-09T00:11:41;13.80;;;10.70;;
77117;SDS011;66072;50.238;19.228;2023-07-09T00:14:11;13.90;;;10.30;;
77117;SDS011;66072;50.238;19.228;2023-07-09T00:16:41;14.20;;;10.20;;
77117;SDS011;66072;50.238;19.228;2023-07-09T00:19:11;14.40;;;11.50;;
77117;SDS011;66072;50.238;19.228;2023-07-09T00:21:40;13.70;;;10.60;;
77117;SDS011;66072;50.238;19.228;2023-07-09T00:24:07;12.50;;;10.40;;
77117;SDS011;66072;50.238;19.228;2023-07-09T00:26:35;16.30;;;10.10;;
77117;SDS011;66072;50.238;19.228;2023-07-09T00:29:03;13.00;;;10.50;;
77117;SDS011;66072;50.238;19.228;2023-07-09T00:31:31;13.70;;;10.40;;
77117;SDS011;66072;50.238;19.228;2023-07-09T00:33:59;15.80;;;10.90;;
77117;SDS011;66072;50.238;19.228;2023-07-09T00:36:30;13.80;;;10.90;;
77117;SDS011;66072;50.238;19.228;2023-07-09T00:38:58;14.70;;;10.90;;
77117;SDS011;66072;50.238;19.228;2023-07-09T00:41:26;12.90;;;10.50;;
77117;SDS011;66072;50.238;19.228;2023-07-09T00:43:53;13.30;;;10.70;;
77117;SDS011;66072;50.238;19.228;2023-07-09T00:48:50;14.00;;;10.90;;
77117;SDS011;66072;50.238;19.228;2023-07-09T00:51:40;12.50;;;10.40;;
77117;SDS011;66072;50.238;19.228;2023-07-09T00:54:19;13.10;;;11.00;;
77117;SDS011;66072;50.238;19.228;2023-07-09T00:56:53;13.20;;;10.80;;
77117;SDS011;66072;50.238;19.228;2023-07-09T00:59:22;13.00;;;10.10;;
77117;SDS011;66072;50.238;19.228;2023-07-09T01:01:54;13.20;;;10.40;;
77117;SDS011;66072;50.238;19.228;2023-07-09T01:04:23;10.80;;;9.70;;
77117;SDS011;66072;50.238;19.228;2023-07-09T01:06:52;12.30;;;9.80;;
77117;SDS011;66072;50.238;19.228;2023-07-09T01:09:22;13.90;;;10.70;;
77117;SDS011;66072;50.238;19.228;2023-07-09T01:11:50;16.40;;;10.50;;
77117;SDS011;66072;50.238;19.228;2023-07-09T01:14:19;12.80;;;10.60;;
77117;SDS011;66072;50.238;19.228;2023-07-09T01:16:48;13.90;;;11.40;;
77117;SDS011;66072;50.238;19.228;2023-07-09T01:19:21;11.40;;;9.80;;
77117;SDS011;66072;50.238;19.228;2023-07-09T01:21:49;13.60;;;10.90;;
77117;SDS011;66072;50.238;19.228;2023-07-09T01:24:46;13.70;;;10.50;;
77117;SDS011;66072;50.238;19.228;2023-07-09T01:27:24;11.40;;;10.20;;
77117;SDS011;66072;50.238;19.228;2023-07-09T01:29:54;15.30;;;10.90;;
77117;SDS011;66072;50.238;19.228;2023-07-09T01:32:23;12.10;;;10.40;;
77117;SDS011;66072;50.238;19.228;2023-07-09T01:34:52;12.00;;;10.70;;
77117;SDS011;66072;50.238;19.228;2023-07-09T01:37:24;11.20;;;10.00;;
77117;SDS011;66072;50.238;19.228;2023-07-09T01:39:53;11.70;;;10.00;;
77117;SDS011;66072;50.238;19.228;2023-07-09T01:42:22;13.90;;;11.20;;
77117;SDS011;66072;50.238;19.228;2023-07-09T01:44:52;12.40;;;10.30;;
77117;SDS011;66072;50.238;19.228;2023-07-09T01:47:21;13.60;;;9.80;;
77117;SDS011;66072;50.238;19.228;2023-07-09T01:49:50;14.30;;;10.60;;
77117;SDS011;66072;50.238;19.228;2023-07-09T01:52:19;13.90;;;11.30;;
77117;SDS011;66072;50.238;19.228;2023-07-09T01:54:46;10.60;;;9.50;;
77117;SDS011;66072;50.238;19.228;2023-07-09T01:57:18;11.80;;;10.20;;
77117;SDS011;66072;50.238;19.228;2023-07-09T01:59:51;12.90;;;10.70;;
77117;SDS011;66072;50.238;19.228;2023-07-09T02:02:19;12.30;;;10.50;;
77117;SDS011;66072;50.238;19.228;2023-07-09T02:04:48;10.90;;;9.30;;
77117;SDS011;66072;50.238;19.228;2023-07-09T02:07:17;11.10;;;9.80;;
77117;SDS011;66072;50.238;19.228;2023-07-09T02:09:45;11.40;;;9.40;;
77117;SDS011;66072;50.238;19.228;2023-07-09T02:12:13;12.00;;;9.80;;
77117;SDS011;66072;50.238;19.228;2023-07-09T02:14:42;11.60;;;9.20;;
77117;SDS011;66072;50.238;19.228;2023-07-09T02:17:12;12.40;;;10.30;;
77117;SDS011;66072;50.238;19.228;2023-07-09T02:22:09;11.90;;;9.70;;
77117;SDS011;66072;50.238;19.228;2023-07-09T02:24:37;12.50;;;9.90;;
77117;SDS011;66072;50.238;19.228;2023-07-09T02:27:07;12.00;;;9.20;;
77117;SDS011;66072;50.238;19.228;2023-07-09T02:29:36;11.20;;;9.60;;
77117;SDS011;66072;50.238;19.228;2023-07-09T02:32:04;11.50;;;9.20;;
77117;SDS011;66072;50.238;19.228;2023-07-09T02:34:32;14.00;;;9.30;;
77117;SDS011;66072;50.238;19.228;2023-07-09T02:37:00;11.70;;;9.70;;
77117;SDS011;66072;50.238;19.228;2023-07-09T02:39:28;13.40;;;10.20;;
77117;SDS011;66072;50.238;19.228;2023-07-09T02:41:56;10.50;;;8.80;;
77117;SDS011;66072;50.238;19.228;2023-07-09T02:44:23;11.50;;;9.30;;
77117;SDS011;66072;50.238;19.228;2023-07-09T02:46:51;11.30;;;9.30;;
77117;SDS011;66072;50.238;19.228;2023-07-09T02:49:19;12.00;;;9.30;;
77117;SDS011;66072;50.238;19.228;2023-07-09T02:51:46;10.10;;;9.00;;
77117;SDS011;66072;50.238;19.228;2023-07-09T02:54:14;12.10;;;10.30;;
77117;SDS011;66072;50.238;19.228;2023-07-09T02:56:41;11.20;;;9.90;;
77117;SDS011;66072;50.238;19.228;2023-07-09T02:59:09;11.50;;;8.80;;
77117;SDS011;66072;50.238;19.228;2023-07-09T03:01:38;12.00;;;9.10;;
77117;SDS011;66072;50.238;19.228;2023-07-09T03:04:06;10.50;;;8.90;;
77117;SDS011;66072;50.238;19.228;2023-07-09T03:06:35;12.70;;;10.00;;
77117;SDS011;66072;50.238;19.228;2023-07-09T03:09:03;10.70;;;9.00;;
77117;SDS011;66072;50.238;19.228;2023-07-09T03:11:32;10.70;;;9.10;;
77117;SDS011;66072;50.238;19.228;2023-07-09T03:14:02;13.90;;;9.50;;
77117;SDS011;66072;50.238;19.228;2023-07-09T03:16:32;11.00;;;8.30;;
77117;SDS011;66072;50.238;19.228;2023-07-09T03:19:01;11.40;;;8.90;;
77117;SDS011;66072;50.238;19.228;2023-07-09T03:21:29;10.10;;;8.60;;
77117;SDS011;66072;50.238;19.228;2023-07-09T03:23:58;12.80;;;9.30;;
77117;SDS011;66072;50.238;19.228;2023-07-09T03:26:26;13.00;;;9.50;;
77117;SDS011;66072;50.238;19.228;2023-07-09T03:28:56;12.00;;;9.20;;
77117;SDS011;66072;50.238;19.228;2023-07-09T03:31:24;13.60;;;9.90;;
77117;SDS011;66072;50.238;19.228;2023-07-09T03:33:52;12.60;;;9.50;;
77117;SDS011;66072;50.238;19.228;2023-07-09T03:36:20;11.50;;;9.10;;
77117;SDS011;66072;50.238;19.228;2023-07-09T03:38:47;12.50;;;9.10;;
77117;SDS011;66072;50.238;19.228;2023-07-09T03:41:16;13.30;;;9.80;;
77117;SDS011;66072;50.238;19.228;2023-07-09T03:43:43;11.60;;;9.90;;
77117;SDS011;66072;50.238;19.228;2023-07-09T03:46:14;11.50;;;9.50;;
77117;SDS011;66072;50.238;19.228;2023-07-09T03:48:41;13.70;;;9.80;;
77117;SDS011;66072;50.238;19.228;2023-07-09T03:51:11;12.60;;;9.20;;
77117;SDS011;66072;50.238;19.228;2023-07-09T03:53:39;11.40;;;9.00;;
77117;SDS011;66072;50.238;19.228;2023-07-09T03:56:06;11.50;;;8.50;;
77117;SDS011;66072;50.238;19.228;2023-07-09T03:58:34;10.40;;;8.80;;
77117;SDS011;66072;50.238;19.228;2023-07-09T04:01:02;10.40;;;8.20;;
77117;SDS011;66072;50.238;19.228;2023-07-09T04:03:30;10.40;;;8.50;;
77117;SDS011;66072;50.238;19.228;2023-07-09T04:05:58;11.50;;;8.20;;
77117;SDS011;66072;50.238;19.228;2023-07-09T04:08:26;13.00;;;9.40;;
77117;SDS011;66072;50.238;19.228;2023-07-09T04:10:54;11.10;;;8.70;;
77117;SDS011;66072;50.238;19.228;2023-07-09T04:13:25;12.40;;;8.90;;
77117;SDS011;66072;50.238;19.228;2023-07-09T04:15:53;12.70;;;9.90;;
77117;SDS011;66072;50.238;19.228;2023-07-09T04:18:20;13.40;;;10.20;;
77117;SDS011;66072;50.238;19.228;2023-07-09T04:20:48;13.70;;;10.20;;
77117;SDS011;66072;50.238;19.228;2023-07-09T04:23:17;13.30;;;11.20;;
77117;SDS011;66072;50.238;19.228;2023-07-09T04:25:46;17.60;;;11.80;;
77117;SDS011;66072;50.238;19.228;2023-07-09T04:28:14;15.20;;;10.90;;
77117;SDS011;66072;50.238;19.228;2023-07-09T04:30:49;13.10;;;10.00;;
77117;SDS011;66072;50.238;19.228;2023-07-09T04:33:19;14.30;;;11.70;;
77117;SDS011;66072;50.238;19.228;2023-07-09T04:35:48;13.80;;;10.80;;
77117;SDS011;66072;50.238;19.228;2023-07-09T04:38:16;13.20;;;10.60;;
77117;SDS011;66072;50.238;19.228;2023-07-09T04:40:44;13.40;;;10.20;;
77117;SDS011;66072;50.238;19.228;2023-07-09T04:43:15;15.30;;;12.10;;
77117;SDS011;66072;50.238;19.228;2023-07-09T04:45:44;14.90;;;11.60;;
77117;SDS011;66072;50.238;19.228;2023-07-09T04:48:14;13.30;;;9.80;;
77117;SDS011;66072;50.238;19.228;2023-07-09T04:50:42;14.50;;;11.20;;
77117;SDS011;66072;50.238;19.228;2023-07-09T04:53:09;12.30;;;9.60;;
77117;SDS011;66072;50.238;19.228;2023-07-09T04:55:37;13.70;;;10.50;;
77117;SDS011;66072;50.238;19.228;2023-07-09T04:58:04;14.90;;;11.60;;
77117;SDS011;66072;50.238;19.228;2023-07-09T05:00:32;13.60;;;11.50;;
77117;SDS011;66072;50.238;19.228;2023-07-09T05:03:00;14.60;;;10.90;;
77117;SDS011;66072;50.238;19.228;2023-07-09T05:05:28;13.80;;;10.90;;
77117;SDS011;66072;50.238;19.228;2023-07-09T05:07:55;13.10;;;9.90;;
77117;SDS011;66072;50.238;19.228;2023-07-09T05:10:23;11.70;;;10.00;;
77117;SDS011;66072;50.238;19.228;2023-07-09T05:12:51;13.00;;;9.90;;
77117;SDS011;66072;50.238;19.228;2023-07-09T05:15:21;14.00;;;9.30;;
77117;SDS011;66072;50.238;19.228;2023-07-09T05:17:50;13.70;;;10.20;;
77117;SDS011;66072;50.238;19.228;2023-07-09T05:20:18;10.90;;;8.40;;
77117;SDS011;66072;50.238;19.228;2023-07-09T05:22:45;11.50;;;9.20;;
77117;SDS011;66072;50.238;19.228;2023-07-09T05:25:13;9.70;;;7.80;;
77117;SDS011;66072;50.238;19.228;2023-07-09T05:27:41;11.00;;;7.20;;
77117;SDS011;66072;50.238;19.228;2023-07-09T05:30:09;10.50;;;8.50;;
77117;SDS011;66072;50.238;19.228;2023-07-09T05:32:37;10.60;;;8.80;;
77117;SDS011;66072;50.238;19.228;2023-07-09T05:35:05;9.30;;;6.90;;
77117;SDS011;66072;50.238;19.228;2023-07-09T05:37:34;11.00;;;8.90;;
77117;SDS011;66072;50.238;19.228;2023-07-09T05:40:03;11.50;;;10.00;;
77117;SDS011;66072;50.238;19.228;2023-07-09T05:42:32;10.90;;;9.30;;
77117;SDS011;66072;50.238;19.228;2023-07-09T05:45:00;8.80;;;7.30;;
77117;SDS011;66072;50.238;19.228;2023-07-09T05:47:31;11.10;;;9.70;;
77117;SDS011;66072;50.238;19.228;2023-07-09T05:49:59;11.00;;;8.50;;
77117;SDS011;66072;50.238;19.228;2023-07-09T05:52:27;11.20;;;9.70;;
77117;SDS011;66072;50.238;19.228;2023-07-09T05:54:55;11.70;;;8.90;;
77117;SDS011;66072;50.238;19.228;2023-07-09T05:57:23;11.30;;;9.20;;
77117;SDS011;66072;50.238;19.228;2023-07-09T05:59:53;9.90;;;8.70;;
77117;SDS011;66072;50.238;19.228;2023-07-09T06:02:21;9.00;;;8.00;;
77117;SDS011;66072;50.238;19.228;2023-07-09T06:04:48;9.60;;;7.90;;
77117;SDS011;66072;50.238;19.228;2023-07-09T06:07:16;9.20;;;8.00;;
77117;SDS011;66072;50.238;19.228;2023-07-09T06:09:44;9.00;;;7.90;;
77117;SDS011;66072;50.238;19.228;2023-07-09T06:12:12;12.10;;;9.00;;
77117;SDS011;66072;50.238;19.228;2023-07-09T06:14:40;8.90;;;7.40;;
77117;SDS011;66072;50.238;19.228;2023-07-09T06:17:07;10.00;;;8.60;;
77117;SDS011;66072;50.238;19.228;2023-07-09T06:19:35;9.60;;;7.80;;
77117;SDS011;66072;50.238;19.228;2023-07-09T06:22:03;9.00;;;7.00;;
77117;SDS011;66072;50.238;19.228;2023-07-09T06:24:31;8.80;;;7.90;;
77117;SDS011;66072;50.238;19.228;2023-07-09T06:26:59;9.60;;;6.80;;
77117;SDS011;66072;50.238;19.228;2023-07-09T06:29:27;6.50;;;5.20;;
77117;SDS011;66072;50.238;19.228;2023-07-09T06:31:54;11.30;;;8.30;;
77117;SDS011;66072;50.238;19.228;2023-07-09T06:34:23;8.80;;;7.10;;
77117;SDS011;66072;50.238;19.228;2023-07-09T06:36:51;10.50;;;7.70;;
77117;SDS011;66072;50.238;19.228;2023-07-09T06:39:19;7.70;;;6.90;;
77117;SDS011;66072;50.238;19.228;2023-07-09T06:41:48;8.60;;;7.00;;
77117;SDS011;66072;50.238;19.228;2023-07-09T06:44:16;9.80;;;7.10;;
77117;SDS011;66072;50.238;19.228;2023-07-09T06:46:43;8.60;;;6.10;;
77117;SDS011;66072;50.238;19.228;2023-07-09T06:49:11;9.10;;;7.20;;
77117;SDS011;66072;50.238;19.228;2023-07-09T06:51:39;9.70;;;7.00;;
77117;SDS011;66072;50.238;19.228;2023-07-09T06:54:06;8.00;;;6.50;;
77117;SDS011;66072;50.238;19.228;2023-07-09T06:56:34;8.00;;;6.30;;
77117;SDS011;66072;50.238;19.228;2023-07-09T06:59:02;9.00;;;7.00;;
77117;SDS011;66072;50.238;19.228;2023-07-09T07:01:32;8.40;;;6.30;;
77117;SDS011;66072;50.238;19.228;2023-07-09T07:04:00;9.00;;;6.90;;
77117;SDS011;66072;50.238;19.228;2023-07-09T07:06:28;8.10;;;6.60;;
77117;SDS011;66072;50.238;19.228;2023-07-09T07:08:56;6.20;;;4.00;;
77117;SDS011;66072;50.238;19.228;2023-07-09T07:11:26;7.80;;;6.20;;
77117;SDS011;66072;50.238;19.228;2023-07-09T07:13:54;6.70;;;4.40;;
77117;SDS011;66072;50.238;19.228;2023-07-09T07:16:21;7.50;;;5.70;;
77117;SDS011;66072;50.238;19.228;2023-07-09T07:18:52;8.40;;;6.30;;
77117;SDS011;66072;50.238;19.228;2023-07-09T07:21:20;8.10;;;5.80;;
77117;SDS011;66072;50.238;19.228;2023-07-09T07:23:50;7.50;;;5.70;;
77117;SDS011;66072;50.238;19.228;2023-07-09T07:26:20;7.80;;;6.00;;
77117;SDS011;66072;50.238;19.228;2023-07-09T07:28:48;7.70;;;5.90;;
77117;SDS011;66072;50.238;19.228;2023-07-09T07:31:16;7.00;;;5.60;;
77117;SDS011;66072;50.238;19.228;2023-07-09T07:33:44;7.70;;;5.80;;
77117;SDS011;66072;50.238;19.228;2023-07-09T07:36:12;6.60;;;4.90;;
77117;SDS011;66072;50.238;19.228;2023-07-09T07:38:56;7.30;;;5.50;;
77117;SDS011;66072;50.238;19.228;2023-07-09T07:41:24;6.10;;;5.10;;
77117;SDS011;66072;50.238;19.228;2023-07-09T07:43:52;6.10;;;4.10;;
77117;SDS011;66072;50.238;19.228;2023-07-09T07:46:20;6.50;;;5.10;;
77117;SDS011;66072;50.238;19.228;2023-07-09T07:48:48;7.60;;;5.10;;
77117;SDS011;66072;50.238;19.228;2023-07-09T07:51:15;5.70;;;4.80;;
77117;SDS011;66072;50.238;19.228;2023-07-09T07:53:43;5.30;;;4.10;;
77117;SDS011;66072;50.238;19.228;2023-07-09T07:56:11;5.50;;;3.80;;
77117;SDS011;66072;50.238;19.228;2023-07-09T07:58:38;8.00;;;5.60;;
77117;SDS011;66072;50.238;19.228;2023-07-09T08:01:06;6.10;;;4.70;;
77117;SDS011;66072;50.238;19.228;2023-07-09T08:03:34;8.10;;;5.40;;
77117;SDS011;66072;50.238;19.228;2023-07-09T08:06:02;6.80;;;5.90;;
77117;SDS011;66072;50.238;19.228;2023-07-09T08:08:31;7.40;;;5.60;;
77117;SDS011;66072;50.238;19.228;2023-07-09T08:11:02;4.80;;;3.80;;
77117;SDS011;66072;50.238;19.228;2023-07-09T08:13:36;6.60;;;5.20;;
77117;SDS011;66072;50.238;19.228;2023-07-09T08:16:06;6.50;;;5.20;;
77117;SDS011;66072;50.238;19.228;2023-07-09T08:18:36;7.40;;;5.50;;
77117;SDS011;66072;50.238;19.228;2023-07-09T08:21:04;5.00;;;4.20;;
77117;SDS011;66072;50.238;19.228;2023-07-09T08:23:32;5.80;;;4.30;;
77117;SDS011;66072;50.238;19.228;2023-07-09T08:26:00;6.00;;;4.40;;
77117;SDS011;66072;50.238;19.228;2023-07-09T08:28:31;4.70;;;3.60;;
77117;SDS011;66072;50.238;19.228;2023-07-09T08:30:59;5.80;;;4.30;;
77117;SDS011;66072;50.238;19.228;2023-07-09T08:33:27;6.60;;;3.60;;
77117;SDS011;66072;50.238;19.228;2023-07-09T08:35:55;4.90;;;3.20;;
77117;SDS011;66072;50.238;19.228;2023-07-09T08:38:23;6.10;;;4.50;;
77117;SDS011;66072;50.238;19.228;2023-07-09T08:40:59;5.00;;;3.90;;
77117;SDS011;66072;50.238;19.228;2023-07-09T08:46:29;7.50;;;3.70;;
77117;SDS011;66072;50.238;19.228;2023-07-09T08:49:03;4.80;;;3.40;;
77117;SDS011;66072;50.238;19.228;2023-07-09T08:51:41;4.90;;;3.40;;
77117;SDS011;66072;50.238;19.228;2023-07-09T08:57:05;4.70;;;3.80;;
77117;SDS011;66072;50.238;19.228;2023-07-09T08:59:46;4.40;;;3.10;;
77117;SDS011;66072;50.238;19.228;2023-07-09T09:02:50;5.20;;;4.30;;
77117;SDS011;66072;50.238;19.228;2023-07-09T09:05:14;5.70;;;4.30;;
77117;SDS011;66072;50.238;19.228;2023-07-09T09:07:46;5.50;;;3.80;;
77117;SDS011;66072;50.238;19.228;2023-07-09T09:10:39;5.20;;;3.30;;
77117;SDS011;66072;50.238;19.228;2023-07-09T09:13:13;5.20;;;4.10;;
77117;SDS011;66072;50.238;19.228;2023-07-09T09:15:43;6.00;;;3.80;;
77117;SDS011;66072;50.238;19.228;2023-07-09T09:18:27;5.10;;;3.80;;
77117;SDS011;66072;50.238;19.228;2023-07-09T09:21:01;5.30;;;4.10;;
77117;SDS011;66072;50.238;19.228;2023-07-09T09:23:41;5.90;;;4.00;;
77117;SDS011;66072;50.238;19.228;2023-07-09T09:26:21;5.80;;;4.50;;
77117;SDS011;66072;50.238;19.228;2023-07-09T09:28:52;4.80;;;3.40;;
77117;SDS011;66072;50.238;19.228;2023-07-09T09:31:20;5.90;;;3.80;;
77117;SDS011;66072;50.238;19.228;2023-07-09T09:33:48;5.70;;;4.10;;
77117;SDS011;66072;50.238;19.228;2023-07-09T09:36:18;3.90;;;3.30;;
77117;SDS011;66072;50.238;19.228;2023-07-09T09:38:48;3.60;;;2.70;;
77117;SDS011;66072;50.238;19.228;2023-07-09T09:41:17;5.40;;;3.40;;
77117;SDS011;66072;50.238;19.228;2023-07-09T09:43:47;4.50;;;3.70;;
77117;SDS011;66072;50.238;19.228;2023-07-09T09:46:23;6.30;;;4.30;;
77117;SDS011;66072;50.238;19.228;2023-07-09T09:48:54;4.00;;;2.90;;
77117;SDS011;66072;50.238;19.228;2023-07-09T09:51:23;5.60;;;3.90;;
77117;SDS011;66072;50.238;19.228;2023-07-09T09:53:52;4.10;;;3.10;;
77117;SDS011;66072;50.238;19.228;2023-07-09T09:56:36;5.50;;;3.30;;
77117;SDS011;66072;50.238;19.228;2023-07-09T09:59:04;4.50;;;3.50;;
77117;SDS011;66072;50.238;19.228;2023-07-09T10:01:33;3.70;;;2.60;;
77117;SDS011;66072;50.238;19.228;2023-07-09T10:04:03;6.30;;;3.50;;
77117;SDS011;66072;50.238;19.228;2023-07-09T10:06:36;3.90;;;2.40;;
77117;SDS011;66072;50.238;19.228;2023-07-09T10:12:47;4.00;;;3.10;;
77117;SDS011;66072;50.238;19.228;2023-07-09T10:15:11;4.10;;;3.20;;
77117;SDS011;66072;50.238;19.228;2023-07-09T10:18:00;4.50;;;2.90;;
77117;SDS011;66072;50.238;19.228;2023-07-09T10:20:45;4.40;;;3.20;;
77117;SDS011;66072;50.238;19.228;2023-07-09T10:23:32;3.90;;;2.50;;
77117;SDS011;66072;50.238;19.228;2023-07-09T10:31:56;4.00;;;3.10;;
77117;SDS011;66072;50.238;19.228;2023-07-09T10:40:09;4.00;;;2.70;;
77117;SDS011;66072;50.238;19.228;2023-07-09T10:42:44;5.10;;;2.90;;
77117;SDS011;66072;50.238;19.228;2023-07-09T10:45:16;3.90;;;2.40;;
77117;SDS011;66072;50.238;19.228;2023-07-09T10:47:54;5.60;;;3.50;;
77117;SDS011;66072;50.238;19.228;2023-07-09T10:50:33;4.20;;;2.40;;
77117;SDS011;66072;50.238;19.228;2023-07-09T10:53:09;4.00;;;2.60;;
77117;SDS011;66072;50.238;19.228;2023-07-09T11:01:47;3.40;;;2.40;;
77117;SDS011;66072;50.238;19.228;2023-07-09T11:07:00;3.90;;;2.60;;
77117;SDS011;66072;50.238;19.228;2023-07-09T11:09:33;3.70;;;2.60;;
77117;SDS011;66072;50.238;19.228;2023-07-09T11:12:17;4.30;;;3.00;;
77117;SDS011;66072;50.238;19.228;2023-07-09T11:14:56;3.40;;;2.60;;
77117;SDS011;66072;50.238;19.228;2023-07-09T11:17:29;4.40;;;3.20;;
77117;SDS011;66072;50.238;19.228;2023-07-09T11:19:58;3.80;;;2.40;;
77117;SDS011;66072;50.238;19.228;2023-07-09T11:22:40;3.70;;;2.70;;
77117;SDS011;66072;50.238;19.228;2023-07-09T11:25:10;3.90;;;2.90;;
77117;SDS011;66072;50.238;19.228;2023-07-09T11:27:49;4.30;;;3.00;;
77117;SDS011;66072;50.238;19.228;2023-07-09T11:30:27;4.40;;;2.60;;
77117;SDS011;66072;50.238;19.228;2023-07-09T11:32:58;3.50;;;2.30;;
77117;SDS011;66072;50.238;19.228;2023-07-09T11:35:51;4.00;;;3.00;;
77117;SDS011;66072;50.238;19.228;2023-07-09T11:38:23;4.20;;;2.60;;
77117;SDS011;66072;50.238;19.228;2023-07-09T11:40:53;3.70;;;2.40;;
77117;SDS011;66072;50.238;19.228;2023-07-09T11:43:32;3.00;;;2.20;;
77117;SDS011;66072;50.238;19.228;2023-07-09T11:46:18;3.40;;;2.60;;
77117;SDS011;66072;50.238;19.228;2023-07-09T11:48:52;4.70;;;3.20;;
77117;SDS011;66072;50.238;19.228;2023-07-09T11:51:37;2.90;;;2.00;;
77117;SDS011;66072;50.238;19.228;2023-07-09T11:54:12;6.20;;;2.60;;
77117;SDS011;66072;50.238;19.228;2023-07-09T11:56:41;3.70;;;2.50;;
77117;SDS011;66072;50.238;19.228;2023-07-09T11:59:10;5.00;;;2.40;;
77117;SDS011;66072;50.238;19.228;2023-07-09T12:01:43;3.70;;;2.80;;
77117;SDS011;66072;50.238;19.228;2023-07-09T12:04:14;4.50;;;3.20;;
77117;SDS011;66072;50.238;19.228;2023-07-09T12:06:44;3.90;;;2.50;;
77117;SDS011;66072;50.238;19.228;2023-07-09T12:09:18;3.80;;;2.00;;
77117;SDS011;66072;50.238;19.228;2023-07-09T12:11:49;3.80;;;2.50;;
77117;SDS011;66072;50.238;19.228;2023-07-09T12:14:19;3.30;;;2.10;;
77117;SDS011;66072;50.238;19.228;2023-07-09T12:16:49;3.50;;;2.50;;
77117;SDS011;66072;50.238;19.228;2023-07-09T12:19:20;3.90;;;2.50;;
77117;SDS011;66072;50.238;19.228;2023-07-09T12:21:51;3.80;;;2.30;;
77117;SDS011;66072;50.238;19.228;2023-07-09T12:27:00;3.60;;;2.40;;
77117;SDS011;66072;50.238;19.228;2023-07-09T12:29:31;3.50;;;2.40;;
77117;SDS011;66072;50.238;19.228;2023-07-09T12:32:03;3.30;;;2.40;;
77117;SDS011;66072;50.238;19.228;2023-07-09T12:34:38;3.80;;;2.30;;
77117;SDS011;66072;50.238;19.228;2023-07-09T12:37:11;3.80;;;2.40;;
77117;SDS011;66072;50.238;19.228;2023-07-09T12:39:42;3.70;;;2.30;;
77117;SDS011;66072;50.238;19.228;2023-07-09T12:42:17;4.00;;;2.50;;
77117;SDS011;66072;50.238;19.228;2023-07-09T12:44:47;3.90;;;2.50;;
77117;SDS011;66072;50.238;19.228;2023-07-09T12:47:15;4.20;;;2.30;;
77117;SDS011;66072;50.238;19.228;2023-07-09T12:49:45;3.50;;;2.10;;
77117;SDS011;66072;50.238;19.228;2023-07-09T12:52:20;3.00;;;2.30;;
77117;SDS011;66072;50.238;19.228;2023-07-09T12:54:55;3.40;;;2.20;;
77117;SDS011;66072;50.238;19.228;2023-07-09T12:57:25;4.00;;;2.20;;
77117;SDS011;66072;50.238;19.228;2023-07-09T12:59:54;3.80;;;2.10;;
77117;SDS011;66072;50.238;19.228;2023-07-09T13:02:23;3.40;;;1.90;;
77117;SDS011;66072;50.238;19.228;2023-07-09T13:05:06;3.70;;;2.20;;
77117;SDS011;66072;50.238;19.228;2023-07-09T13:07:50;4.10;;;2.20;;
77117;SDS011;66072;50.238;19.228;2023-07-09T13:10:23;3.80;;;2.20;;
77117;SDS011;66072;50.238;19.228;2023-07-09T13:12:57;4.20;;;2.50;;
77117;SDS011;66072;50.238;19.228;2023-07-09T13:18:07;3.70;;;2.30;;
77117;SDS011;66072;50.238;19.228;2023-07-09T13:20:39;3.40;;;2.30;;
77117;SDS011;66072;50.238;19.228;2023-07-09T13:23:25;5.50;;;2.50;;
77117;SDS011;66072;50.238;19.228;2023-07-09T13:25:55;3.90;;;2.20;;
77117;SDS011;66072;50.238;19.228;2023-07-09T13:28:28;3.90;;;2.50;;
77117;SDS011;66072;50.238;19.228;2023-07-09T13:31:08;4.10;;;2.70;;
77117;SDS011;66072;50.238;19.228;2023-07-09T13:33:41;4.40;;;2.40;;
77117;SDS011;66072;50.238;19.228;2023-07-09T13:36:10;5.50;;;2.30;;
77117;SDS011;66072;50.238;19.228;2023-07-09T13:38:38;3.70;;;2.60;;
77117;SDS011;66072;50.238;19.228;2023-07-09T13:41:10;3.50;;;2.20;;
77117;SDS011;66072;50.238;19.228;2023-07-09T13:43:41;3.80;;;2.60;;
77117;SDS011;66072;50.238;19.228;2023-07-09T13:46:12;3.90;;;2.10;;
77117;SDS011;66072;50.238;19.228;2023-07-09T13:48:41;3.80;;;2.00;;
77117;SDS011;66072;50.238;19.228;2023-07-09T13:53:50;4.50;;;2.30;;
77117;SDS011;66072;50.238;19.228;2023-07-09T13:56:21;2.80;;;1.70;;
77117;SDS011;66072;50.238;19.228;2023-07-09T13:58:49;3.40;;;2.10;;
77117;SDS011;66072;50.238;19.228;2023-07-09T14:01:18;3.10;;;2.00;;
77117;SDS011;66072;50.238;19.228;2023-07-09T14:03:49;3.10;;;1.90;;
77117;SDS011;66072;50.238;19.228;2023-07-09T14:06:18;3.60;;;2.40;;
77117;SDS011;66072;50.238;19.228;2023-07-09T14:08:45;3.80;;;2.70;;
77117;SDS011;66072;50.238;19.228;2023-07-09T14:11:14;3.60;;;2.20;;
77117;SDS011;66072;50.238;19.228;2023-07-09T14:13:45;4.50;;;2.60;;
77117;SDS011;66072;50.238;19.228;2023-07-09T14:16:13;4.20;;;2.50;;
77117;SDS011;66072;50.238;19.228;2023-07-09T14:18:41;3.30;;;2.10;;
77117;SDS011;66072;50.238;19.228;2023-07-09T14:21:20;3.80;;;2.60;;
77117;SDS011;66072;50.238;19.228;2023-07-09T14:23:53;3.50;;;2.30;;
77117;SDS011;66072;50.238;19.228;2023-07-09T14:26:21;4.50;;;2.50;;
77117;SDS011;66072;50.238;19.228;2023-07-09T14:28:49;3.40;;;2.20;;
77117;SDS011;66072;50.238;19.228;2023-07-09T14:31:22;3.30;;;2.10;;
77117;SDS011;66072;50.238;19.228;2023-07-09T14:33:53;3.70;;;2.20;;
77117;SDS011;66072;50.238;19.228;2023-07-09T14:36:22;4.50;;;2.30;;
77117;SDS011;66072;50.238;19.228;2023-07-09T14:38:50;3.90;;;2.60;;
77117;SDS011;66072;50.238;19.228;2023-07-09T14:41:21;3.90;;;2.50;;
77117;SDS011;66072;50.238;19.228;2023-07-09T14:43:54;3.60;;;2.60;;
77117;SDS011;66072;50.238;19.228;2023-07-09T14:46:24;4.20;;;2.30;;
77117;SDS011;66072;50.238;19.228;2023-07-09T14:48:54;3.40;;;2.00;;
77117;SDS011;66072;50.238;19.228;2023-07-09T14:51:22;3.60;;;2.20;;
77117;SDS011;66072;50.238;19.228;2023-07-09T14:53:50;4.50;;;2.40;;
77117;SDS011;66072;50.238;19.228;2023-07-09T14:56:18;4.20;;;2.20;;
77117;SDS011;66072;50.238;19.228;2023-07-09T14:58:46;3.70;;;2.10;;
77117;SDS011;66072;50.238;19.228;2023-07-09T15:01:14;3.00;;;1.70;;
77117;SDS011;66072;50.238;19.228;2023-07-09T15:03:42;3.10;;;2.10;;
77117;SDS011;66072;50.238;19.228;2023-07-09T15:06:10;3.90;;;2.10;;
77117;SDS011;66072;50.238;19.228;2023-07-09T15:08:37;3.00;;;2.10;;
77117;SDS011;66072;50.238;19.228;2023-07-09T15:11:05;3.60;;;2.20;;
77117;SDS011;66072;50.238;19.228;2023-07-09T15:13:36;4.60;;;1.90;;
77117;SDS011;66072;50.238;19.228;2023-07-09T15:16:04;3.00;;;1.90;;
77117;SDS011;66072;50.238;19.228;2023-07-09T15:18:32;6.70;;;2.90;;
77117;SDS011;66072;50.238;19.228;2023-07-09T15:21:00;3.80;;;2.10;;
77117;SDS011;66072;50.238;19.228;2023-07-09T15:23:31;3.30;;;1.80;;
77117;SDS011;66072;50.238;19.228;2023-07-09T15:26:04;3.00;;;1.90;;
77117;SDS011;66072;50.238;19.228;2023-07-09T15:28:39;4.50;;;1.90;;